createdAt,value
2018-05-13T00:01:04.397Z,23.70
2018-05-13T00:03:32.292Z,24.40
2018-05-13T00:06:00.174Z,25.30
2018-05-13T00:08:28.090Z,26.17
2018-05-13T00:10:55.981Z,26.60
2018-05-13T00:13:23.874Z,24.37
2018-05-13T00:15:51.765Z,24.90
2018-05-13T00:18:19.709Z,26.07
2018-05-13T00:20:47.602Z,25.67
2018-05-13T00:23:15.508Z,24.20
2018-05-13T00:25:43.410Z,25.00
2018-05-13T00:28:11.302Z,25.07
2018-05-13T00:30:39.218Z,26.60
2018-05-13T00:33:07.110Z,24.73
2018-05-13T00:35:35.001Z,24.80
2018-05-13T00:38:03.101Z,24.90
2018-05-13T00:40:31.013Z,25.00
2018-05-13T00:42:58.941Z,25.70
2018-05-13T00:45:26.837Z,25.20
2018-05-13T00:47:54.725Z,26.23
2018-05-13T00:50:22.605Z,24.67
2018-05-13T00:52:50.502Z,26.43
2018-05-13T00:55:18.402Z,25.27
2018-05-13T00:57:46.285Z,23.90
2018-05-13T01:00:14.190Z,25.70
2018-05-13T01:02:42.163Z,22.97
2018-05-13T01:05:10.052Z,25.20
2018-05-13T01:07:37.965Z,25.73
2018-05-13T01:10:05.889Z,24.60
2018-05-13T01:12:33.789Z,26.07
2018-05-13T01:15:01.674Z,25.47
2018-05-13T01:17:29.549Z,27.70
2018-05-13T01:19:57.449Z,26.47
2018-05-13T01:22:25.365Z,25.87
2018-05-13T01:24:53.330Z,27.37
2018-05-13T01:27:21.234Z,26.20
2018-05-13T01:29:49.172Z,25.83
2018-05-13T01:32:17.083Z,25.83
2018-05-13T01:34:44.972Z,26.90
2018-05-13T01:37:12.849Z,25.30
2018-05-13T01:39:40.913Z,27.07
2018-05-13T01:42:08.854Z,25.83
2018-05-13T01:44:36.741Z,28.83
2018-05-13T01:47:04.642Z,25.60
2018-05-13T01:49:32.537Z,26.20
2018-05-13T01:52:00.499Z,26.77
2018-05-13T01:54:28.390Z,24.63
2018-05-13T01:56:56.297Z,27.50
2018-05-13T01:59:24.201Z,25.80
2018-05-13T02:01:52.130Z,25.37
2018-05-13T02:04:20.029Z,28.93
2018-05-13T02:06:47.909Z,24.63
2018-05-13T02:09:15.826Z,24.80
2018-05-13T02:11:43.709Z,24.90
2018-05-13T02:14:11.589Z,23.80
2018-05-13T02:16:39.508Z,24.27
2018-05-13T02:19:07.402Z,26.20
2018-05-13T02:21:35.293Z,25.83
2018-05-13T02:24:03.219Z,23.43
2018-05-13T02:26:31.118Z,26.20
2018-05-13T02:28:59.022Z,23.80
2018-05-13T02:31:26.967Z,24.70
2018-05-13T02:33:54.890Z,24.30
2018-05-13T02:36:22.796Z,24.27
2018-05-13T02:38:50.689Z,24.50
2018-05-13T02:41:18.844Z,25.37
2018-05-13T02:43:46.777Z,22.83
2018-05-13T02:46:14.669Z,22.67
2018-05-13T02:48:42.570Z,23.23
2018-05-13T02:51:10.466Z,24.93
2018-05-13T02:53:38.369Z,23.17
2018-05-13T02:56:06.281Z,24.87
2018-05-13T02:58:34.218Z,25.17
2018-05-13T03:01:02.102Z,23.70
2018-05-13T03:03:30.010Z,23.43
2018-05-13T03:05:57.955Z,23.77
2018-05-13T03:08:25.871Z,24.50
2018-05-13T03:10:53.770Z,23.67
2018-05-13T03:13:21.674Z,22.70
2018-05-13T03:15:49.610Z,23.30
2018-05-13T03:18:17.502Z,23.90
2018-05-13T03:20:45.433Z,22.53
2018-05-13T03:23:13.336Z,22.80
2018-05-13T03:25:41.219Z,23.50
2018-05-13T03:28:09.181Z,23.17
2018-05-13T03:30:37.067Z,22.90
2018-05-13T03:33:04.954Z,24.60
2018-05-13T03:38:08.946Z,22.80
2018-05-13T03:40:36.853Z,23.23
2018-05-13T03:43:04.921Z,23.00
2018-05-13T03:45:32.824Z,22.70
2018-05-13T03:48:00.710Z,23.40
2018-05-13T03:50:28.630Z,22.53
2018-05-13T03:52:56.534Z,23.63
2018-05-13T03:55:24.410Z,22.53
2018-05-13T03:57:52.301Z,21.70
2018-05-13T04:00:20.197Z,22.90
2018-05-13T04:02:48.114Z,23.20
2018-05-13T04:05:16.041Z,23.20
2018-05-13T04:07:43.931Z,21.07
2018-05-13T04:10:17.899Z,23.03
2018-05-13T04:13:06.669Z,22.47
2018-05-13T04:15:34.546Z,22.80
2018-05-13T04:18:02.462Z,22.80
2018-05-13T04:20:30.390Z,23.63
2018-05-13T04:22:58.282Z,23.80
2018-05-13T04:25:26.206Z,23.53
2018-05-13T04:27:54.097Z,23.00
2018-05-13T04:30:22.013Z,23.30
2018-05-13T04:32:49.933Z,22.10
2018-05-13T04:35:17.826Z,22.80
2018-05-13T04:37:45.719Z,23.30
2018-05-13T04:40:13.623Z,23.50
2018-05-13T04:42:41.541Z,21.77
2018-05-13T04:45:09.738Z,24.67
2018-05-13T04:47:37.653Z,24.20
2018-05-13T04:50:05.549Z,24.60
2018-05-13T04:52:33.441Z,25.43
2018-05-13T04:55:01.341Z,24.77
2018-05-13T04:57:29.231Z,24.27
2018-05-13T04:59:57.121Z,25.20
2018-05-13T05:02:25.039Z,24.07
2018-05-13T05:04:52.942Z,22.50
2018-05-13T05:07:20.847Z,22.83
2018-05-13T05:09:48.750Z,24.50
2018-05-13T05:12:16.633Z,24.90
2018-05-13T05:14:44.562Z,25.20
2018-05-13T05:17:12.494Z,23.60
2018-05-13T05:19:40.377Z,24.80
2018-05-13T05:22:08.292Z,25.17
2018-05-13T05:24:36.185Z,25.40
2018-05-13T05:27:04.075Z,24.33
2018-05-13T05:29:31.986Z,24.57
2018-05-13T05:31:59.930Z,25.10
2018-05-13T05:34:27.818Z,23.30
2018-05-13T05:36:55.764Z,22.60
2018-05-13T05:39:23.665Z,23.17
2018-05-13T05:41:51.562Z,24.33
2018-05-13T05:44:19.453Z,23.77
2018-05-13T05:46:47.601Z,24.27
2018-05-13T05:49:15.493Z,24.20
2018-05-13T05:51:43.390Z,22.50
2018-05-13T05:54:11.268Z,23.30
2018-05-13T05:56:39.166Z,23.77
2018-05-13T05:59:07.062Z,24.30
2018-05-13T06:01:34.972Z,22.73
2018-05-13T06:04:02.853Z,22.37
2018-05-13T06:06:30.766Z,24.37
2018-05-13T06:08:58.662Z,21.73
2018-05-13T06:11:26.555Z,22.87
2018-05-13T06:13:54.442Z,24.50
2018-05-13T06:16:22.361Z,23.20
2018-05-13T06:18:50.316Z,22.73
2018-05-13T06:21:18.205Z,24.20
2018-05-13T06:23:46.110Z,22.90
2018-05-13T06:26:13.997Z,23.67
2018-05-13T06:28:41.881Z,22.47
2018-05-13T06:31:09.782Z,22.70
2018-05-13T06:33:37.661Z,22.23
2018-05-13T06:36:05.574Z,23.70
2018-05-13T06:38:33.466Z,23.93
2018-05-13T06:41:01.402Z,22.00
2018-05-13T06:43:29.321Z,23.30
2018-05-13T06:45:57.230Z,26.13
2018-05-13T06:48:25.363Z,22.53
2018-05-13T06:50:53.309Z,22.00
2018-05-13T06:53:21.157Z,24.53
2018-05-13T06:55:49.064Z,23.33
2018-05-13T06:58:16.962Z,23.20
2018-05-13T07:00:44.873Z,23.57
2018-05-13T07:03:12.792Z,23.27
2018-05-13T07:05:40.669Z,24.93
2018-05-13T07:08:08.560Z,25.77
2018-05-13T07:10:36.477Z,22.37
2018-05-13T07:13:04.382Z,23.63
2018-05-13T07:15:32.282Z,22.00
2018-05-13T07:18:00.238Z,21.80
2018-05-13T07:20:28.122Z,21.50
2018-05-13T07:22:56.009Z,21.07
2018-05-13T07:25:23.917Z,22.40
2018-05-13T07:27:51.817Z,23.40
2018-05-13T07:30:19.705Z,22.40
2018-05-13T07:32:47.602Z,22.27
2018-05-13T07:35:15.493Z,22.27
2018-05-13T07:37:43.396Z,24.87
2018-05-13T07:40:11.281Z,21.83
2018-05-13T07:42:39.181Z,22.00
2018-05-13T07:45:07.105Z,23.40
2018-05-13T07:47:35.031Z,22.60
2018-05-13T07:50:03.146Z,23.43
2018-05-13T07:52:31.047Z,20.60
2018-05-13T07:54:58.957Z,22.93
2018-05-13T07:57:26.841Z,22.20
2018-05-13T07:59:54.742Z,20.10
2018-05-13T08:02:22.650Z,20.20
2018-05-13T08:04:50.553Z,21.67
2018-05-13T08:07:18.471Z,21.33
2018-05-13T08:09:46.410Z,21.03
2018-05-13T08:12:14.305Z,19.47
2018-05-13T08:14:42.194Z,19.20
2018-05-13T08:17:10.081Z,19.70
2018-05-13T08:19:37.962Z,19.70
2018-05-13T08:22:05.850Z,18.50
2018-05-13T08:24:33.782Z,18.27
2018-05-13T08:27:01.672Z,20.20
2018-05-13T08:29:29.593Z,19.70
2018-05-13T08:31:57.518Z,19.30
2018-05-13T08:34:25.431Z,19.60
2018-05-13T08:36:53.330Z,20.00
2018-05-13T08:39:21.221Z,18.00
2018-05-13T08:41:49.124Z,18.70
2018-05-13T08:44:17.063Z,17.97
2018-05-13T08:46:44.977Z,18.27
2018-05-13T08:49:12.909Z,16.73
2018-05-13T08:51:41.070Z,17.50
2018-05-13T08:54:08.970Z,16.23
2018-05-13T08:56:36.858Z,19.30
2018-05-13T08:59:04.741Z,17.93
2018-05-13T09:01:32.661Z,15.70
2018-05-13T09:04:00.553Z,16.47
2018-05-13T09:06:28.450Z,16.03
2018-05-13T09:08:56.330Z,15.50
2018-05-13T09:11:24.398Z,14.13
2018-05-13T09:13:52.312Z,15.93
2018-05-13T09:16:20.221Z,15.03
2018-05-13T09:18:48.130Z,17.30
2018-05-13T09:21:16.028Z,16.43
2018-05-13T09:23:43.926Z,15.00
2018-05-13T09:26:11.806Z,14.20
2018-05-13T09:28:39.754Z,15.37
2018-05-13T09:31:07.634Z,15.20
2018-05-13T09:33:35.529Z,13.20
2018-05-13T09:36:03.442Z,10.97
2018-05-13T09:38:31.334Z,12.73
2018-05-13T09:40:59.233Z,13.80
2018-05-13T09:43:27.134Z,13.90
2018-05-13T09:45:55.111Z,12.80
2018-05-13T09:48:22.954Z,14.20
2018-05-13T09:50:50.838Z,13.73
2018-05-13T09:53:19.026Z,14.03
2018-05-13T09:55:46.926Z,13.60
2018-05-13T09:58:14.817Z,14.47
2018-05-13T10:00:42.713Z,14.80
2018-05-13T10:03:10.622Z,13.00
2018-05-13T10:05:38.530Z,13.87
2018-05-13T10:08:06.458Z,16.57
2018-05-13T10:10:34.354Z,16.20
2018-05-13T10:13:02.253Z,13.83
2018-05-13T10:15:30.161Z,14.30
2018-05-13T10:17:58.074Z,15.60
2018-05-13T10:20:25.994Z,13.87
2018-05-13T10:22:53.881Z,17.17
2018-05-13T10:25:21.777Z,15.57
2018-05-13T10:27:49.718Z,13.17
2018-05-13T10:30:17.629Z,16.37
2018-05-13T10:32:45.544Z,16.30
2018-05-13T10:35:13.427Z,16.90
2018-05-13T10:37:41.334Z,15.30
2018-05-13T10:40:09.225Z,15.43
2018-05-13T10:42:37.122Z,16.67
2018-05-13T10:45:05.027Z,16.13
2018-05-13T10:47:32.942Z,19.40
2018-05-13T10:50:00.837Z,15.13
2018-05-13T10:52:28.740Z,16.03
2018-05-13T10:54:56.966Z,17.33
2018-05-13T10:57:24.866Z,17.20
2018-05-13T10:59:52.785Z,17.27
2018-05-13T11:02:20.670Z,17.80
2018-05-13T11:04:48.606Z,14.53
2018-05-13T11:07:16.516Z,13.90
2018-05-13T11:09:44.445Z,19.40
2018-05-13T11:12:12.347Z,16.97
2018-05-13T11:14:40.242Z,16.03
2018-05-13T11:17:08.137Z,18.53
2018-05-13T11:19:36.024Z,18.47
2018-05-13T11:22:03.965Z,20.70
2018-05-13T11:24:31.855Z,17.40
2018-05-13T11:26:59.765Z,17.30
2018-05-13T11:29:27.678Z,14.40
2018-05-13T11:31:55.580Z,18.90
2018-05-13T11:34:23.521Z,16.80
2018-05-13T11:36:51.422Z,20.00
2018-05-13T11:39:19.314Z,18.53
2018-05-13T11:41:47.230Z,17.97
2018-05-13T11:44:15.133Z,17.03
2018-05-13T11:46:43.048Z,20.50
2018-05-13T11:49:10.958Z,20.90
2018-05-13T11:51:38.813Z,21.93
2018-05-13T11:54:06.727Z,20.70
2018-05-13T11:56:34.857Z,21.30
2018-05-13T11:59:02.724Z,20.60
2018-05-13T12:01:30.689Z,21.10
2018-05-13T12:03:58.614Z,16.70
2018-05-13T12:06:26.502Z,20.20
2018-05-13T12:08:54.430Z,18.93
2018-05-13T12:11:22.312Z,20.13
2018-05-13T12:13:50.238Z,25.20
2018-05-13T12:16:18.132Z,23.87
2018-05-13T12:18:46.022Z,23.43
2018-05-13T12:21:13.926Z,23.67
2018-05-13T12:23:41.899Z,20.20
2018-05-13T12:26:09.862Z,22.00
2018-05-13T12:28:37.754Z,19.00
2018-05-13T12:31:05.642Z,21.87
2018-05-13T12:33:33.549Z,18.03
2018-05-13T12:36:01.450Z,20.03
2018-05-13T12:38:29.346Z,21.30
2018-05-13T12:40:57.274Z,16.57
2018-05-13T12:43:25.263Z,18.57
2018-05-13T12:45:53.134Z,19.17
2018-05-13T12:48:21.036Z,17.73
2018-05-13T12:50:48.925Z,17.70
2018-05-13T12:53:16.822Z,14.90
2018-05-13T12:55:44.726Z,18.20
2018-05-13T12:58:12.938Z,16.07
2018-05-13T13:00:40.871Z,16.30
2018-05-13T13:03:08.781Z,18.37
2018-05-13T13:05:36.706Z,16.60
2018-05-13T13:08:04.595Z,16.27
2018-05-13T13:10:32.485Z,15.07
2018-05-13T13:13:00.390Z,14.30
2018-05-13T13:15:28.314Z,14.80
2018-05-13T13:17:56.258Z,17.50
2018-05-13T13:20:24.161Z,17.87
2018-05-13T13:22:52.070Z,16.20
2018-05-13T13:25:19.983Z,15.13
2018-05-13T13:27:47.878Z,15.23
2018-05-13T13:30:15.898Z,16.30
2018-05-13T13:32:43.769Z,15.50
2018-05-13T13:35:11.656Z,13.40
2018-05-13T13:37:39.591Z,17.40
2018-05-13T13:40:07.522Z,17.33
2018-05-13T13:42:35.416Z,15.40
2018-05-13T13:45:03.318Z,14.60
2018-05-13T13:47:31.241Z,12.20
2018-05-13T13:49:59.158Z,11.33
2018-05-13T13:52:27.053Z,11.40
2018-05-13T13:54:54.973Z,11.40
2018-05-13T13:57:22.863Z,11.60
2018-05-13T13:59:51.049Z,13.70
2018-05-13T14:02:19.074Z,10.47
2018-05-13T14:04:47.006Z,10.60
2018-05-13T14:07:14.897Z,12.73
2018-05-13T14:09:42.813Z,14.33
2018-05-13T14:12:10.710Z,13.80
2018-05-13T14:14:38.641Z,11.13
2018-05-13T14:17:06.574Z,11.40
2018-05-13T14:19:34.492Z,10.97
2018-05-13T14:22:02.390Z,12.40
2018-05-13T14:24:30.362Z,11.60
2018-05-13T14:26:58.277Z,11.10
2018-05-13T14:29:26.151Z,10.57
2018-05-13T14:31:54.062Z,10.83
2018-05-13T14:34:21.960Z,10.40
2018-05-13T14:36:49.854Z,9.67
2018-05-13T14:39:17.757Z,10.43
2018-05-13T14:41:45.646Z,10.10
2018-05-13T14:44:13.558Z,9.17
2018-05-13T14:46:41.465Z,8.60
2018-05-13T14:49:09.429Z,9.10
2018-05-13T14:51:37.356Z,11.90
2018-05-13T14:54:05.240Z,10.00
2018-05-13T14:56:33.145Z,9.80
2018-05-13T14:59:01.042Z,9.47
2018-05-13T15:01:29.086Z,8.70
2018-05-13T15:03:56.997Z,8.27
2018-05-13T15:06:24.882Z,8.60
2018-05-13T15:08:52.761Z,7.50
2018-05-13T15:11:20.679Z,7.70
2018-05-13T15:13:48.566Z,7.33
2018-05-13T15:16:16.461Z,7.20
2018-05-13T15:18:44.365Z,7.20
2018-05-13T15:21:12.253Z,6.87
2018-05-13T15:23:40.171Z,6.70
2018-05-13T15:26:08.223Z,6.57
2018-05-13T15:28:36.118Z,7.00
2018-05-13T15:31:04.026Z,7.57
2018-05-13T15:33:31.929Z,7.93
2018-05-13T15:35:59.841Z,9.37
2018-05-13T15:38:27.712Z,6.73
2018-05-13T15:40:55.878Z,7.17
2018-05-13T15:43:24.029Z,7.80
2018-05-13T15:45:51.890Z,7.20
2018-05-13T15:48:19.830Z,7.00
2018-05-13T15:50:48.686Z,6.60
2018-05-13T15:53:16.630Z,7.63
2018-05-13T15:55:44.532Z,6.50
2018-05-13T15:58:12.467Z,6.07
2018-05-13T16:00:40.391Z,5.80
2018-05-13T16:03:08.493Z,6.13
2018-05-13T16:05:36.401Z,6.00
2018-05-13T16:08:04.343Z,6.37
2018-05-13T16:10:32.221Z,10.07
2018-05-13T16:13:00.258Z,7.97
2018-05-13T16:15:28.188Z,7.27
2018-05-13T16:17:56.435Z,5.77
2018-05-13T16:20:24.366Z,8.90
2018-05-13T16:22:52.301Z,6.50
2018-05-13T16:25:20.189Z,7.60
2018-05-13T16:27:48.078Z,7.10
2018-05-13T16:30:16.048Z,7.90
2018-05-13T16:32:43.856Z,7.40
2018-05-13T16:35:11.751Z,5.40
2018-05-13T16:37:39.658Z,4.77
2018-05-13T16:40:07.546Z,5.57
2018-05-13T16:42:35.454Z,4.57
2018-05-13T16:45:03.359Z,5.37
2018-05-13T16:47:31.241Z,5.07
2018-05-13T16:49:59.137Z,4.97
2018-05-13T16:52:27.033Z,6.00
2018-05-13T16:54:54.917Z,7.10
2018-05-13T16:57:22.813Z,5.10
2018-05-13T16:59:50.765Z,6.33
2018-05-13T17:02:18.695Z,7.00
2018-05-13T17:04:46.837Z,6.27
2018-05-13T17:07:14.733Z,4.63
2018-05-13T17:09:42.613Z,4.83
2018-05-13T17:12:10.518Z,4.30
2018-05-13T17:14:38.410Z,3.83
2018-05-13T17:17:06.296Z,5.13
2018-05-13T17:19:34.198Z,4.23
2018-05-13T17:22:02.119Z,4.73
2018-05-13T17:24:30.019Z,5.60
2018-05-13T17:26:57.905Z,6.60
2018-05-13T17:29:25.805Z,6.53
2018-05-13T17:31:53.709Z,5.17
2018-05-13T17:34:21.613Z,4.50
2018-05-13T17:36:49.517Z,4.73
2018-05-13T17:39:17.440Z,4.07
2018-05-13T17:41:45.371Z,4.10
2018-05-13T17:44:13.270Z,3.63
2018-05-13T17:46:41.187Z,4.50
2018-05-13T17:49:09.082Z,4.80
2018-05-13T17:51:37.042Z,4.53
2018-05-13T17:54:04.941Z,7.53
2018-05-13T17:56:32.862Z,6.33
2018-05-13T17:59:00.830Z,5.57
2018-05-13T18:01:28.749Z,6.87
2018-05-13T18:03:56.647Z,6.43
2018-05-13T18:06:24.823Z,5.20
2018-05-13T18:08:52.737Z,4.20
2018-05-13T18:11:20.638Z,5.13
2018-05-13T18:13:48.588Z,4.43
2018-05-13T18:16:16.506Z,4.30
2018-05-13T18:18:44.406Z,4.00
2018-05-13T18:21:12.356Z,4.40
2018-05-13T18:23:40.270Z,4.33
2018-05-13T18:26:08.205Z,5.03
2018-05-13T18:28:36.117Z,4.40
2018-05-13T18:31:04.101Z,5.80
2018-05-13T18:33:32.026Z,11.00
2018-05-13T18:35:59.978Z,7.40
2018-05-13T18:38:27.878Z,6.50
2018-05-13T18:40:55.865Z,5.03
2018-05-13T18:43:23.778Z,5.00
2018-05-13T18:45:51.730Z,5.07
2018-05-13T18:48:19.670Z,5.40
2018-05-13T18:50:47.593Z,4.60
2018-05-13T18:53:15.514Z,4.23
2018-05-13T18:55:43.441Z,4.63
2018-05-13T18:58:11.341Z,5.20
2018-05-13T19:00:39.238Z,7.00
2018-05-13T19:03:07.145Z,4.63
2018-05-13T19:05:35.070Z,5.10
2018-05-13T19:08:03.170Z,5.30
2018-05-13T19:10:31.059Z,6.47
2018-05-13T19:12:58.970Z,4.73
2018-05-13T19:15:26.887Z,3.93
2018-05-13T19:17:54.790Z,4.80
2018-05-13T19:20:22.716Z,4.97
2018-05-13T19:22:50.606Z,4.80
2018-05-13T19:25:18.502Z,8.00
2018-05-13T19:27:46.417Z,4.40
2018-05-13T19:30:14.370Z,4.50
2018-05-13T19:32:44.177Z,4.33
2018-05-13T19:35:14.749Z,4.33
2018-05-13T19:37:43.508Z,3.90
2018-05-13T19:40:11.411Z,5.47
2018-05-13T19:42:39.298Z,6.20
2018-05-13T19:45:07.200Z,5.90
2018-05-13T19:47:35.112Z,4.57
2018-05-13T19:50:03.018Z,4.57
2018-05-13T19:52:30.909Z,4.43
2018-05-13T19:54:58.794Z,4.60
2018-05-13T19:57:26.701Z,4.70
2018-05-13T19:59:54.621Z,5.03
2018-05-13T20:02:22.509Z,6.37
2018-05-13T20:04:50.410Z,5.77
2018-05-13T20:07:18.305Z,6.03
2018-05-13T20:09:46.500Z,4.90
2018-05-13T20:12:14.333Z,5.03
2018-05-13T20:14:42.257Z,5.73
2018-05-13T20:17:10.165Z,6.57
2018-05-13T20:19:38.049Z,5.23
2018-05-13T20:22:05.966Z,5.63
2018-05-13T20:24:33.863Z,4.33
2018-05-13T20:27:01.766Z,4.90
2018-05-13T20:29:29.679Z,5.60
2018-05-13T20:31:57.569Z,4.80
2018-05-13T20:34:25.474Z,5.23
2018-05-13T20:36:53.394Z,5.77
2018-05-13T20:39:21.285Z,5.77
2018-05-13T20:41:49.188Z,5.80
2018-05-13T20:44:17.094Z,5.70
2018-05-13T20:46:45.001Z,5.47
2018-05-13T20:49:12.897Z,5.33
2018-05-13T20:51:40.787Z,5.53
2018-05-13T20:54:08.678Z,4.40
2018-05-13T20:56:36.573Z,5.77
2018-05-13T20:59:04.461Z,5.80
2018-05-13T21:01:32.337Z,5.03
2018-05-13T21:04:00.230Z,5.53
2018-05-13T21:06:28.294Z,5.20
2018-05-13T21:08:56.216Z,4.83
2018-05-13T21:11:24.333Z,4.77
2018-05-13T21:13:52.229Z,5.30
2018-05-13T21:16:20.134Z,5.13
2018-05-13T21:18:48.031Z,4.10
2018-05-13T21:21:15.931Z,6.03
2018-05-13T21:23:43.831Z,4.87
2018-05-13T21:26:11.721Z,5.47
2018-05-13T21:28:39.613Z,4.83
2018-05-13T21:31:07.513Z,4.97
2018-05-13T21:33:35.447Z,5.10
2018-05-13T21:36:03.362Z,5.00
2018-05-13T21:38:31.318Z,4.70
2018-05-13T21:40:59.205Z,5.33
2018-05-13T21:43:27.092Z,5.63
2018-05-13T21:45:54.997Z,4.80
2018-05-13T21:48:22.908Z,5.80
2018-05-13T21:50:50.802Z,4.87
2018-05-13T21:53:18.719Z,4.97
2018-05-13T21:55:46.622Z,4.30
2018-05-13T21:58:14.541Z,5.10
2018-05-13T22:00:42.443Z,4.70
2018-05-13T22:03:10.334Z,5.10
2018-05-13T22:05:38.241Z,5.50
2018-05-13T22:08:06.130Z,5.77
2018-05-13T22:10:34.029Z,4.60
2018-05-13T22:13:02.150Z,4.40
2018-05-13T22:15:30.051Z,5.33
2018-05-13T22:17:57.951Z,5.10
2018-05-13T22:20:25.854Z,4.77
2018-05-13T22:22:53.752Z,5.53
2018-05-13T22:25:21.642Z,4.90
2018-05-13T22:27:49.541Z,5.50
2018-05-13T22:30:17.429Z,5.47
2018-05-13T22:32:45.329Z,5.33
2018-05-13T22:35:13.224Z,6.23
2018-05-13T22:37:41.122Z,5.30
2018-05-13T22:40:09.021Z,5.53
2018-05-13T22:42:36.910Z,5.60
2018-05-13T22:45:04.884Z,5.30
2018-05-13T22:47:32.693Z,5.97
2018-05-13T22:50:00.603Z,5.80
2018-05-13T22:52:28.541Z,5.27
2018-05-13T22:54:56.385Z,5.17
2018-05-13T22:57:24.285Z,5.20
2018-05-13T22:59:52.193Z,5.57
2018-05-13T23:02:20.104Z,6.13
2018-05-13T23:04:48.017Z,5.20
2018-05-13T23:07:15.929Z,5.17
2018-05-13T23:09:43.817Z,4.80
2018-05-13T23:12:11.723Z,5.90
2018-05-13T23:14:39.990Z,4.90
2018-05-13T23:17:07.870Z,5.70
2018-05-13T23:19:35.789Z,5.93
2018-05-13T23:22:03.701Z,5.33
2018-05-13T23:24:31.590Z,5.50
2018-05-13T23:26:59.490Z,5.77
2018-05-13T23:29:27.405Z,6.13
2018-05-13T23:31:55.299Z,5.43
2018-05-13T23:34:23.225Z,6.13
2018-05-13T23:36:51.114Z,6.63
2018-05-13T23:39:19.001Z,5.40
2018-05-13T23:41:46.921Z,5.70
2018-05-13T23:44:14.811Z,5.27
2018-05-13T23:46:42.719Z,6.30
2018-05-13T23:49:10.613Z,6.13
2018-05-13T23:51:38.555Z,6.03
2018-05-13T23:54:06.453Z,6.30
2018-05-13T23:56:34.345Z,6.13
2018-05-13T23:59:02.237Z,5.60
